TimeCET,TemperatureF,Dew PointF,Humidity,Sea Level PressureIn,VisibilityMPH,Wind Direction,Wind SpeedMPH,Gust SpeedMPH,PrecipitationIn,Events,Conditions,WindDirDegrees,DateUTC
12:00 AM,39.2,39.2,100,30.06,3.1,Variable,3.5,-,N/A,,Mostly Cloudy,0,2014-01-11 23:00:00
12:30 AM,39.2,39.2,100,30.06,2.5,Variable,2.3,-,N/A,,Mostly Cloudy,0,2014-01-11 23:30:00
1:00 AM,39.2,39.2,100,30.04,2.2,Variable,3.5,-,N/A,,Mostly Cloudy,0,2014-01-12 00:00:00
1:30 AM,39.2,39.2,100,30.04,2.2,SW,8.1,-,N/A,,Mostly Cloudy,220,2014-01-12 00:30:00
2:00 AM,39.2,39.2,100,30.06,1.9,SW,6.9,-,N/A,,Scattered Clouds,220,2014-01-12 01:00:00
2:30 AM,39.2,39.2,100,30.06,1.9,Variable,2.3,-,N/A,Fog,Patches of Fog,0,2014-01-12 01:30:00
3:00 AM,35.6,35.6,100,30.06,1.9,Variable,3.5,-,N/A,Fog,Patches of Fog,0,2014-01-12 02:00:00
3:30 AM,37.4,37.4,100,30.06,3.1,West,4.6,-,N/A,,Mist,270,2014-01-12 02:30:00
4:00 AM,46.4,46.4,100,30.06,-9999.0,WNW,21.9,-,N/A,,Clear,290,2014-01-12 03:00:00
4:30 AM,46.4,41.0,81,30.09,6.2,WNW,25.3,-,N/A,,Scattered Clouds,290,2014-01-12 03:30:00
5:00 AM,46.4,39.2,76,30.09,6.2,WNW,31.1,-,N/A,,Scattered Clouds,290,2014-01-12 04:00:00
5:30 AM,44.6,37.4,76,30.12,6.2,WNW,26.5,-,N/A,,Scattered Clouds,290,2014-01-12 04:30:00
6:00 AM,44.6,35.6,71,30.12,6.2,WNW,23.0,-,N/A,,Scattered Clouds,290,2014-01-12 05:00:00
6:30 AM,42.8,35.6,76,30.12,6.2,West,21.9,-,N/A,,Scattered Clouds,280,2014-01-12 05:30:00
7:00 AM,41.0,33.8,76,30.15,-9999.0,West,18.4,-,N/A,,Clear,280,2014-01-12 06:00:00
7:30 AM,41.0,33.8,76,30.18,-9999.0,WNW,16.1,-,N/A,,Clear,290,2014-01-12 06:30:00
8:00 AM,41.0,32.0,70,30.18,-9999.0,WNW,20.7,-,N/A,,Clear,290,2014-01-12 07:00:00
8:30 AM,41.0,32.0,70,30.21,-9999.0,WNW,19.6,-,N/A,,Clear,290,2014-01-12 07:30:00
9:00 AM,42.8,32.0,66,30.21,-9999.0,WNW,18.4,-,N/A,,Clear,300,2014-01-12 08:00:00
9:30 AM,42.8,30.2,61,30.21,6.2,WNW,23.0,-,N/A,,Partly Cloudy,290,2014-01-12 08:30:00
10:00 AM,44.6,30.2,57,30.21,6.2,WNW,26.5,-,N/A,,Partly Cloudy,290,2014-01-12 09:00:00
10:30 AM,44.6,30.2,57,30.21,6.2,WNW,26.5,-,N/A,,Partly Cloudy,290,2014-01-12 09:30:00
11:00 AM,44.6,28.4,53,30.21,6.2,WNW,24.2,-,N/A,,Scattered Clouds,290,2014-01-12 10:00:00
11:30 AM,44.6,26.6,49,30.21,6.2,WNW,27.6,-,N/A,,Partly Cloudy,290,2014-01-12 10:30:00
12:00 PM,44.6,28.4,53,30.18,6.2,West,25.3,-,N/A,,Partly Cloudy,280,2014-01-12 11:00:00
12:30 PM,44.6,26.6,49,30.18,6.2,West,24.2,-,N/A,,Partly Cloudy,280,2014-01-12 11:30:00
1:00 PM,44.6,26.6,49,30.18,6.2,West,23.0,-,N/A,,Scattered Clouds,280,2014-01-12 12:00:00
1:30 PM,44.6,28.4,53,30.18,6.2,West,20.7,-,N/A,,Scattered Clouds,280,2014-01-12 12:30:00
2:00 PM,44.6,26.6,49,30.18,6.2,WNW,19.6,-,N/A,,Scattered Clouds,290,2014-01-12 13:00:00
2:30 PM,42.8,26.6,53,30.18,6.2,WNW,19.6,-,N/A,,Partly Cloudy,300,2014-01-12 13:30:00
3:00 PM,42.8,26.6,53,30.18,6.2,WNW,16.1,-,N/A,,Scattered Clouds,290,2014-01-12 14:00:00
3:30 PM,41.0,26.6,57,30.18,6.2,WNW,13.8,-,N/A,,Scattered Clouds,300,2014-01-12 14:30:00
4:00 PM,41.0,26.6,57,30.18,6.2,West,13.8,-,N/A,,Scattered Clouds,280,2014-01-12 15:00:00
4:30 PM,39.2,26.6,61,30.18,6.2,West,11.5,-,N/A,,Scattered Clouds,280,2014-01-12 15:30:00
5:00 PM,37.4,26.6,65,30.18,-9999.0,West,10.4,-,N/A,,Clear,270,2014-01-12 16:00:00
5:30 PM,37.4,28.4,70,30.18,-9999.0,West,6.9,-,N/A,,Clear,260,2014-01-12 16:30:00
6:00 PM,37.4,26.6,65,30.18,-9999.0,WSW,8.1,-,N/A,,Clear,250,2014-01-12 17:00:00
6:30 PM,35.6,26.6,70,30.18,-9999.0,West,8.1,-,N/A,,Clear,260,2014-01-12 17:30:00
7:00 PM,35.6,26.6,70,30.21,-9999.0,West,10.4,-,N/A,,Clear,260,2014-01-12 18:00:00
7:30 PM,33.8,28.4,81,30.18,-9999.0,WSW,6.9,-,N/A,,Clear,240,2014-01-12 18:30:00
8:00 PM,30.2,26.6,86,30.21,-9999.0,SW,4.6,-,N/A,,Clear,220,2014-01-12 19:00:00
8:30 PM,32.0,28.4,87,30.18,-9999.0,SW,9.2,-,N/A,,Clear,220,2014-01-12 19:30:00
9:00 PM,32.0,28.4,87,30.18,-9999.0,WSW,8.1,-,N/A,,Clear,250,2014-01-12 20:00:00
9:30 PM,32.0,28.4,87,30.18,-9999.0,Calm,Calm,-,N/A,,Clear,0,2014-01-12 20:30:00
10:00 PM,28.4,24.8,86,30.18,-9999.0,Variable,3.5,-,N/A,,Clear,0,2014-01-12 21:00:00
10:30 PM,26.6,24.8,93,30.18,-9999.0,West,4.6,-,N/A,,Clear,260,2014-01-12 21:30:00
11:00 PM,28.4,24.8,86,30.18,-9999.0,Variable,3.5,-,N/A,,Clear,0,2014-01-12 22:00:00
11:30 PM,26.6,24.8,93,30.18,-9999.0,Variable,3.5,-,N/A,,Clear,0,2014-01-12 22:30:00